Time;durP1;ratioP1;P1;durP2;ratioP2;P2;SDS_P1;SDS_P2;PMS_P1;PMS_P2;Temp;Humidity;BMP_temperature;BMP_pressure;BME280_temperature;BME280_humidity;BME280_pressure;Samples;Min_cycle;Max_cycle;Signal;HPM_P1;HPM_P2
2023/07/16 00:01:06;;;;;;;2.07;1.90;;;20.00;99.90;;;;;;4994782;28;20476;-67
2023/07/16 00:03:33;;;;;;;2.10;1.90;;;20.10;99.90;;;;;;5008623;28;20468;-69
2023/07/16 00:05:59;;;;;;;2.03;1.83;;;20.00;99.90;;;;;;5008571;28;20472;-69
2023/07/16 00:08:27;;;;;;;1.83;1.70;;;20.00;99.90;;;;;;5009011;28;20485;-69
2023/07/16 00:10:54;;;;;;;1.80;1.60;;;19.90;99.90;;;;;;5009174;28;20508;-69
2023/07/16 00:13:21;;;;;;;2.20;1.90;;;19.90;99.90;;;;;;5009318;28;20500;-69
2023/07/16 00:15:48;;;;;;;1.67;1.53;;;19.90;99.90;;;;;;5008221;28;20473;-69
2023/07/16 00:18:14;;;;;;;1.90;1.53;;;19.90;99.90;;;;;;5008914;28;20481;-69
2023/07/16 00:20:41;;;;;;;1.40;1.30;;;19.90;99.90;;;;;;5008729;28;20503;-69
2023/07/16 00:23:08;;;;;;;2.40;1.37;;;19.90;99.90;;;;;;5008808;28;20469;-69
2023/07/16 00:25:36;;;;;;;1.73;1.37;;;19.90;99.90;;;;;;5008095;28;21189;-68
2023/07/16 00:28:02;;;;;;;1.40;1.30;;;19.90;99.90;;;;;;5008749;28;20490;-69
2023/07/16 00:30:29;;;;;;;1.40;1.30;;;19.90;99.90;;;;;;5008661;28;20461;-69
2023/07/16 00:32:56;;;;;;;1.73;1.63;;;19.90;99.90;;;;;;5008597;28;20472;-68
2023/07/16 00:35:22;;;;;;;1.30;1.20;;;19.90;99.90;;;;;;5007943;28;20930;-69
2023/07/16 00:37:49;;;;;;;1.47;1.30;;;19.90;99.90;;;;;;5008251;28;20485;-69
2023/07/16 00:40:16;;;;;;;1.27;1.17;;;19.90;99.90;;;;;;5008442;28;20481;-69
2023/07/16 00:42:44;;;;;;;2.23;1.40;;;19.90;99.90;;;;;;5008364;28;20460;-68
2023/07/16 00:45:14;;;;;;;1.40;1.20;;;19.90;99.90;;;;;;5007785;28;20470;-68
2023/07/16 00:47:42;;;;;;;2.07;1.40;;;19.90;99.90;;;;;;5007956;28;20492;-68
2023/07/16 00:50:16;;;;;;;1.60;1.10;;;19.90;99.90;;;;;;5008514;28;20494;-68
2023/07/16 00:52:44;;;;;;;1.57;1.43;;;19.80;99.90;;;;;;5008389;28;20499;-68
2023/07/16 00:55:11;;;;;;;1.57;1.47;;;19.80;99.90;;;;;;5010537;28;20511;-68
2023/07/16 00:57:39;;;;;;;1.50;1.40;;;19.80;99.90;;;;;;5010723;28;20488;-67
2023/07/16 01:00:09;;;;;;;1.20;1.10;;;19.80;99.90;;;;;;5010958;28;20845;-68
2023/07/16 01:02:36;;;;;;;1.37;1.10;;;19.70;99.90;;;;;;5010839;28;20552;-68
2023/07/16 01:05:03;;;;;;;1.40;1.20;;;19.70;99.90;;;;;;5010449;28;20502;-68
2023/07/16 01:07:32;;;;;;;1.33;1.20;;;19.70;99.90;;;;;;5010783;28;20993;-68
2023/07/16 01:10:00;;;;;;;2.60;1.50;;;19.70;99.90;;;;;;5010918;28;20827;-68
2023/07/16 01:12:28;;;;;;;1.50;1.40;;;19.70;99.90;;;;;;5011038;28;20469;-68
2023/07/16 01:14:57;;;;;;;1.30;1.10;;;19.70;99.90;;;;;;5010282;28;20462;-68
2023/07/16 01:17:25;;;;;;;1.87;1.57;;;19.70;99.90;;;;;;5010660;28;20509;-68
2023/07/16 01:19:52;;;;;;;1.90;1.20;;;19.60;99.90;;;;;;5010571;28;20533;-68
2023/07/16 01:22:36;;;;;;;1.70;1.60;;;19.60;99.90;;;;;;5010803;28;20461;-67
2023/07/16 01:25:19;;;;;;;1.20;1.10;;;19.60;99.90;;;;;;5010172;28;20462;-68
2023/07/16 01:28:19;;;;;;;1.87;1.53;;;19.60;99.90;;;;;;5010466;28;21035;-68
2023/07/16 01:30:48;;;;;;;1.10;1.00;;;19.60;99.90;;;;;;5010646;28;20458;-69
2023/07/16 01:33:17;;;;;;;1.57;1.23;;;19.50;99.90;;;;;;5010576;28;20461;-69
2023/07/16 01:35:46;;;;;;;1.50;1.40;;;19.50;99.90;;;;;;5009957;28;20464;-68
2023/07/16 01:38:13;;;;;;;1.57;1.20;;;19.40;99.90;;;;;;5010823;28;20875;-68
2023/07/16 01:40:40;;;;;;;1.17;0.90;;;19.30;99.90;;;;;;5010207;28;20482;-68
2023/07/16 01:43:07;;;;;;;1.57;1.23;;;19.30;99.90;;;;;;5010517;28;20468;-68
2023/07/16 01:45:33;;;;;;;1.43;1.10;;;19.20;99.90;;;;;;5009988;28;20849;-68
2023/07/16 01:48:15;;;;;;;3.97;1.20;;;19.20;99.90;;;;;;5010366;28;20489;-68
2023/07/16 01:50:42;;;;;;;1.83;1.43;;;19.20;99.90;;;;;;5010348;28;20464;-68
2023/07/16 01:53:09;;;;;;;1.37;1.13;;;19.10;99.90;;;;;;5010564;28;20825;-69
2023/07/16 01:55:36;;;;;;;1.13;1.03;;;19.10;99.90;;;;;;5009801;28;20664;-67
2023/07/16 01:58:03;;;;;;;1.33;1.20;;;19.10;99.90;;;;;;5014109;28;20850;-68
2023/07/16 02:00:29;;;;;;;1.43;1.33;;;19.00;99.90;;;;;;5014275;28;20610;-68
2023/07/16 02:02:56;;;;;;;1.60;1.33;;;19.00;99.90;;;;;;5014182;28;20472;-69
2023/07/16 02:05:24;;;;;;;1.50;1.03;;;19.00;99.90;;;;;;5013559;28;20480;-69
2023/07/16 02:07:51;;;;;;;1.03;0.93;;;18.90;99.90;;;;;;5013956;28;20488;-69
2023/07/16 02:10:17;;;;;;;1.50;1.30;;;18.90;99.90;;;;;;5014090;28;20464;-69
2023/07/16 02:12:44;;;;;;;1.37;1.20;;;18.80;99.90;;;;;;5013853;28;20464;-70
2023/07/16 02:15:11;;;;;;;1.23;1.13;;;18.80;99.90;;;;;;5013669;28;20473;-69
2023/07/16 02:17:38;;;;;;;2.80;1.60;;;18.80;99.90;;;;;;5013811;28;20853;-69
2023/07/16 02:20:06;;;;;;;1.30;1.20;;;18.80;99.90;;;;;;4986378;28;20488;-69
2023/07/16 02:22:35;;;;;;;2.67;1.70;;;18.80;99.90;;;;;;4994228;28;20499;-69
2023/07/16 02:25:03;;;;;;;1.83;1.60;;;18.70;99.90;;;;;;4993859;28;20830;-69
2023/07/16 02:27:30;;;;;;;1.33;1.03;;;18.60;99.90;;;;;;4994127;28;20574;-69
2023/07/16 02:29:56;;;;;;;1.43;1.30;;;18.60;99.90;;;;;;4993970;28;20460;-69
2023/07/16 02:32:23;;;;;;;1.37;1.10;;;18.50;99.90;;;;;;4994225;28;20916;-69
2023/07/16 02:34:51;;;;;;;1.40;1.30;;;18.50;99.90;;;;;;4993552;28;20519;-68
2023/07/16 02:37:17;;;;;;;1.40;1.10;;;18.40;99.90;;;;;;4994060;28;20874;-69
2023/07/16 02:39:46;;;;;;;1.60;1.50;;;18.40;99.90;;;;;;4994384;28;20485;-69
2023/07/16 02:42:13;;;;;;;1.50;1.40;;;18.40;99.90;;;;;;5013642;28;20471;-69
2023/07/16 02:44:43;;;;;;;2.00;1.20;;;18.40;99.90;;;;;;5013011;28;20466;-69
2023/07/16 02:47:10;;;;;;;1.23;1.13;;;18.30;99.90;;;;;;4986280;28;21027;-69
2023/07/16 02:49:36;;;;;;;1.63;1.40;;;18.30;99.90;;;;;;4993767;28;20518;-69
2023/07/16 02:52:04;;;;;;;1.30;1.20;;;18.20;99.90;;;;;;4993881;28;20469;-68
2023/07/16 02:54:30;;;;;;;1.50;1.40;;;18.20;99.90;;;;;;4993147;28;20487;-69
2023/07/16 02:56:59;;;;;;;1.20;1.10;;;18.10;99.90;;;;;;4993616;28;20890;-68
2023/07/16 02:59:25;;;;;;;1.60;1.40;;;18.10;99.90;;;;;;4993360;28;20487;-68
2023/07/16 03:01:53;;;;;;;1.77;1.67;;;18.00;99.90;;;;;;4993137;28;20843;-69
2023/07/16 03:04:20;;;;;;;2.10;1.60;;;18.00;99.90;;;;;;4993245;28;20472;-68
2023/07/16 03:06:47;;;;;;;2.47;1.30;;;17.90;99.90;;;;;;4992556;28;20491;-69
2023/07/16 03:09:14;;;;;;;1.43;1.17;;;17.90;99.90;;;;;;4993618;28;20463;-68
2023/07/16 03:11:40;;;;;;;1.50;1.10;;;17.90;99.90;;;;;;4993375;28;20467;-68
2023/07/16 03:14:08;;;;;;;2.53;1.53;;;17.90;99.90;;;;;;4993102;28;20472;-68
2023/07/16 03:16:35;;;;;;;1.80;1.30;;;17.90;99.90;;;;;;4992865;28;20474;-69
2023/07/16 03:19:02;;;;;;;2.97;1.70;;;17.80;99.90;;;;;;4993262;28;20890;-69
2023/07/16 03:21:29;;;;;;;1.50;1.37;;;17.80;99.90;;;;;;4993248;28;20887;-69
2023/07/16 03:23:55;;;;;;;1.90;1.33;;;17.90;99.90;;;;;;4993045;28;20467;-70
2023/07/16 03:26:22;;;;;;;1.63;1.10;;;17.80;99.90;;;;;;4992923;28;20458;-69
2023/07/16 03:28:49;;;;;;;1.77;1.43;;;17.80;99.90;;;;;;4992903;28;20995;-70
2023/07/16 03:31:17;;;;;;;1.63;1.53;;;17.80;99.90;;;;;;4993064;28;20452;-69
2023/07/16 03:33:43;;;;;;;1.63;1.50;;;17.70;99.90;;;;;;4992805;28;20469;-69
2023/07/16 03:36:10;;;;;;;1.83;1.37;;;17.70;99.90;;;;;;4992560;28;20472;-70
2023/07/16 03:38:37;;;;;;;2.03;1.40;;;17.70;99.90;;;;;;4992752;28;20487;-69
2023/07/16 03:41:03;;;;;;;1.60;1.50;;;17.60;99.90;;;;;;4992869;28;20486;-70
2023/07/16 03:43:30;;;;;;;1.80;1.40;;;17.60;99.90;;;;;;4992764;28;20470;-69
2023/07/16 03:45:57;;;;;;;1.40;1.23;;;17.60;99.90;;;;;;4992327;28;20833;-70
2023/07/16 03:48:25;;;;;;;1.97;1.60;;;17.60;99.90;;;;;;4992668;28;20485;-69
2023/07/16 03:50:51;;;;;;;2.20;1.37;;;17.60;99.90;;;;;;4992560;28;20475;-69
2023/07/16 03:53:18;;;;;;;2.20;2.00;;;17.60;99.90;;;;;;4992753;28;20833;-69
2023/07/16 03:55:45;;;;;;;1.87;1.77;;;17.60;99.90;;;;;;4992044;28;20478;-69
2023/07/16 03:58:11;;;;;;;2.77;1.47;;;17.50;99.90;;;;;;4992482;28;20500;-69
2023/07/16 04:00:38;;;;;;;1.67;1.57;;;17.50;99.90;;;;;;4992302;28;20484;-69
2023/07/16 04:03:05;;;;;;;1.97;1.80;;;17.60;99.90;;;;;;4992414;28;20878;-68
2023/07/16 04:05:33;;;;;;;1.53;1.37;;;17.60;99.90;;;;;;4991848;28;20467;-68
2023/07/16 04:07:59;;;;;;;1.90;1.67;;;17.60;99.90;;;;;;4992135;28;20493;-69
2023/07/16 04:10:26;;;;;;;1.10;1.00;;;17.60;99.90;;;;;;4992426;28;20467;-69
2023/07/16 04:12:53;;;;;;;1.60;1.40;;;17.60;99.90;;;;;;4992119;28;20837;-69
2023/07/16 04:15:19;;;;;;;2.67;1.50;;;17.60;99.90;;;;;;4991808;28;20493;-69
2023/07/16 04:17:46;;;;;;;2.83;1.70;;;17.60;99.90;;;;;;4992063;28;20485;-69
2023/07/16 04:20:13;;;;;;;1.97;1.57;;;17.50;99.90;;;;;;4991134;28;20491;-69
2023/07/16 04:22:41;;;;;;;1.57;1.47;;;17.50;99.90;;;;;;4992178;28;21208;-69
2023/07/16 04:25:08;;;;;;;1.40;1.20;;;17.50;99.90;;;;;;4991500;28;20466;-69
2023/07/16 04:27:35;;;;;;;1.30;1.20;;;17.50;99.90;;;;;;4991956;28;20502;-69
2023/07/16 04:30:02;;;;;;;1.50;1.40;;;17.50;99.90;;;;;;4991853;28;20547;-70
2023/07/16 04:32:29;;;;;;;1.53;1.30;;;17.50;99.90;;;;;;4991864;28;20587;-69
2023/07/16 04:34:56;;;;;;;1.40;1.30;;;17.50;99.90;;;;;;4991315;28;20891;-69
2023/07/16 04:37:22;;;;;;;1.60;1.47;;;17.50;99.90;;;;;;4991809;28;20495;-69
2023/07/16 04:39:51;;;;;;;1.57;1.40;;;17.50;99.90;;;;;;4991719;28;20515;-69
2023/07/16 04:42:18;;;;;;;1.50;1.40;;;17.50;99.90;;;;;;4991860;28;20465;-70
2023/07/16 04:44:44;;;;;;;2.20;1.43;;;17.50;99.90;;;;;;4990986;28;20464;-70
2023/07/16 04:47:11;;;;;;;2.07;1.40;;;17.50;99.90;;;;;;4991531;28;20491;-69
2023/07/16 04:49:38;;;;;;;1.53;1.43;;;17.40;99.90;;;;;;4991454;28;20473;-69
2023/07/16 04:52:05;;;;;;;1.77;1.37;;;17.50;99.90;;;;;;4991713;28;20845;-69
2023/07/16 04:54:36;;;;;;;1.70;1.50;;;17.50;99.90;;;;;;4990891;28;20463;-69
2023/07/16 04:57:06;;;;;;;1.80;1.53;;;17.50;99.90;;;;;;4991542;28;20515;-70
2023/07/16 04:59:33;;;;;;;1.70;1.57;;;17.50;99.90;;;;;;4991254;28;20470;-70
2023/07/16 05:02:00;;;;;;;1.60;1.50;;;17.50;99.90;;;;;;4991237;28;20479;-69
2023/07/16 05:04:26;;;;;;;1.67;1.50;;;17.50;99.90;;;;;;4990939;28;20475;-68
2023/07/16 05:06:53;;;;;;;1.97;1.73;;;17.50;99.90;;;;;;4991289;28;20495;-69
2023/07/16 05:09:20;;;;;;;1.87;1.57;;;17.50;99.90;;;;;;4991442;28;20805;-69
2023/07/16 05:11:46;;;;;;;1.47;1.33;;;17.50;99.90;;;;;;4991305;28;20961;-69
2023/07/16 05:14:15;;;;;;;2.20;1.80;;;17.60;99.90;;;;;;4990927;28;20510;-69
2023/07/16 05:16:41;;;;;;;1.53;1.40;;;17.60;99.90;;;;;;4990798;28;20576;-69
2023/07/16 05:19:08;;;;;;;1.43;1.27;;;17.60;99.90;;;;;;4991237;28;20471;-69
2023/07/16 05:21:35;;;;;;;3.03;1.60;;;17.60;99.90;;;;;;4991081;28;20813;-69
2023/07/16 05:24:02;;;;;;;1.50;1.40;;;17.60;99.90;;;;;;4990864;28;20468;-69
2023/07/16 05:26:29;;;;;;;1.70;1.30;;;17.60;99.90;;;;;;4990779;28;20466;-68
2023/07/16 05:28:55;;;;;;;2.47;1.60;;;17.60;99.90;;;;;;4991308;28;20468;-69
2023/07/16 05:31:23;;;;;;;1.40;1.30;;;17.60;99.90;;;;;;4982949;28;20946;-69
2023/07/16 05:33:50;;;;;;;4.33;1.70;;;17.60;99.90;;;;;;4990866;28;20462;-69
2023/07/16 05:36:17;;;;;;;1.60;1.50;;;17.70;99.90;;;;;;4990529;28;20613;-70
2023/07/16 05:38:43;;;;;;;1.30;1.13;;;17.70;99.90;;;;;;4991192;28;20504;-69
2023/07/16 05:41:10;;;;;;;4.83;1.83;;;17.70;99.90;;;;;;4990945;28;20478;-69
2023/07/16 05:43:37;;;;;;;1.60;1.40;;;17.70;99.90;;;;;;4990717;28;20464;-68
2023/07/16 05:46:05;;;;;;;1.50;1.40;;;17.80;99.90;;;;;;4990300;28;20464;-69
2023/07/16 05:48:33;;;;;;;1.73;1.23;;;17.80;99.90;;;;;;4990714;28;20488;-69
2023/07/16 05:50:59;;;;;;;1.63;1.53;;;17.80;99.90;;;;;;4990725;28;20460;-69
2023/07/16 05:53:26;;;;;;;2.43;1.60;;;17.90;99.90;;;;;;4990627;28;20464;-69
2023/07/16 05:55:53;;;;;;;1.63;1.53;;;17.90;99.90;;;;;;4990313;28;20467;-69
2023/07/16 05:58:20;;;;;;;1.70;1.50;;;18.00;99.90;;;;;;4990392;28;20494;-69
2023/07/16 06:00:46;;;;;;;2.03;1.80;;;18.00;99.90;;;;;;4990248;28;20493;-69
2023/07/16 06:03:16;;;;;;;3.90;1.60;;;18.00;99.90;;;;;;4990432;28;20574;-69
2023/07/16 06:05:45;;;;;;;3.00;1.33;;;18.00;99.90;;;;;;4990059;28;20552;-69
2023/07/16 06:08:12;;;;;;;1.50;1.40;;;18.00;99.90;;;;;;4990395;28;20495;-69
2023/07/16 06:10:39;;;;;;;3.17;1.93;;;18.00;99.90;;;;;;4990374;28;20497;-69
2023/07/16 06:13:05;;;;;;;4.23;1.97;;;18.00;99.90;;;;;;4990038;28;20481;-70
2023/07/16 06:15:32;;;;;;;1.50;1.40;;;18.00;99.90;;;;;;4989907;28;20463;-69
2023/07/16 06:17:59;;;;;;;2.50;1.73;;;18.00;99.90;;;;;;4990541;28;20485;-69
2023/07/16 06:20:25;;;;;;;2.20;1.63;;;17.90;99.90;;;;;;4990305;28;20474;-70
2023/07/16 06:22:53;;;;;;;2.20;1.27;;;18.00;99.90;;;;;;4990728;28;20474;-69
2023/07/16 06:25:20;;;;;;;2.10;1.30;;;17.90;99.90;;;;;;4989918;28;20463;-69
2023/07/16 06:27:48;;;;;;;2.27;1.60;;;17.90;99.90;;;;;;4990233;28;20492;-70
2023/07/16 06:30:15;;;;;;;2.03;1.67;;;17.90;99.90;;;;;;4990473;28;20464;-70
2023/07/16 06:32:41;;;;;;;1.97;1.50;;;17.90;99.90;;;;;;4990399;28;20957;-70
2023/07/16 06:35:09;;;;;;;2.60;1.50;;;17.90;99.90;;;;;;4989787;28;20458;-69
2023/07/16 06:37:36;;;;;;;1.33;1.23;;;18.00;99.90;;;;;;4990245;28;20505;-70
2023/07/16 06:40:05;;;;;;;1.47;1.13;;;18.00;99.90;;;;;;4990304;28;20543;-68
2023/07/16 06:42:32;;;;;;;1.40;1.20;;;18.10;99.90;;;;;;4991093;28;21005;-69
2023/07/16 06:44:59;;;;;;;2.23;1.77;;;18.10;99.90;;;;;;5009054;28;20492;-70
2023/07/16 06:47:25;;;;;;;1.40;1.30;;;18.10;99.90;;;;;;5013138;28;20497;-70
2023/07/16 06:49:52;;;;;;;3.90;1.87;;;18.20;99.90;;;;;;5013170;28;20462;-69
2023/07/16 06:52:24;;;;;;;2.87;1.57;;;18.20;99.90;;;;;;5084165;23;21054;-75
2023/07/16 06:54:51;;;;;;;1.53;1.43;;;18.30;99.90;;;;;;5021331;28;20547;-73
2023/07/16 06:57:19;;;;;;;2.00;1.27;;;18.30;99.90;;;;;;5037596;28;20485;-74
2023/07/16 06:59:45;;;;;;;2.60;1.80;;;18.30;99.90;;;;;;5038770;28;20472;-74
2023/07/16 07:02:13;;;;;;;2.13;1.70;;;18.40;99.90;;;;;;5035104;28;20486;-74
2023/07/16 07:04:40;;;;;;;1.90;1.80;;;18.40;99.90;;;;;;5032273;28;20466;-74
2023/07/16 07:07:07;;;;;;;1.40;1.30;;;18.50;99.90;;;;;;5032378;28;20484;-74
2023/07/16 07:09:34;;;;;;;2.20;1.90;;;18.50;99.90;;;;;;5032646;28;20464;-74
2023/07/16 07:12:01;;;;;;;3.57;1.67;;;18.60;99.90;;;;;;5032562;28;20462;-74
2023/07/16 07:14:29;;;;;;;2.33;2.00;;;18.60;99.90;;;;;;5035383;28;20476;-74
2023/07/16 07:16:56;;;;;;;2.60;1.67;;;18.60;99.90;;;;;;5051273;28;20455;-73
2023/07/16 07:19:22;;;;;;;1.90;1.70;;;18.60;99.90;;;;;;5052402;28;20464;-73
2023/07/16 07:21:49;;;;;;;1.60;1.30;;;18.70;99.90;;;;;;5046431;28;21000;-72
2023/07/16 07:24:16;;;;;;;2.37;1.60;;;18.80;99.90;;;;;;5032105;28;20469;-72
2023/07/16 07:26:42;;;;;;;2.17;1.33;;;18.80;99.90;;;;;;5028388;28;20494;-72
2023/07/16 07:29:09;;;;;;;2.00;1.50;;;18.80;99.90;;;;;;5033807;28;20840;-72
2023/07/16 07:31:37;;;;;;;3.20;1.80;;;18.80;99.90;;;;;;5052139;28;20831;-72
2023/07/16 07:34:04;;;;;;;2.07;1.40;;;18.80;99.90;;;;;;5051402;28;21007;-72
2023/07/16 07:36:31;;;;;;;3.40;1.90;;;18.90;99.90;;;;;;5050217;28;20884;-72
2023/07/16 07:38:58;;;;;;;2.73;1.70;;;18.90;99.90;;;;;;5051890;28;20556;-73
2023/07/16 07:41:25;;;;;;;2.03;1.83;;;18.90;99.90;;;;;;5051957;28;20585;-72
2023/07/16 07:43:51;;;;;;;6.00;1.87;;;19.00;99.90;;;;;;5051678;28;20468;-72
2023/07/16 07:46:18;;;;;;;1.70;1.53;;;19.00;99.90;;;;;;5051558;28;20471;-72
2023/07/16 07:48:47;;;;;;;3.20;1.40;;;19.00;99.90;;;;;;5047029;28;20487;-73
2023/07/16 07:51:13;;;;;;;1.33;1.23;;;19.00;99.90;;;;;;5031881;28;20466;-73
2023/07/16 07:53:40;;;;;;;2.70;2.20;;;19.10;99.90;;;;;;5031666;28;20466;-73
2023/07/16 07:56:07;;;;;;;2.90;1.53;;;19.20;99.90;;;;;;5039473;28;20469;-72
2023/07/16 07:58:33;;;;;;;2.00;1.80;;;19.30;99.90;;;;;;5051131;28;20482;-72
2023/07/16 08:01:05;;;;;;;2.00;1.33;;;19.30;99.90;;;;;;5036590;28;20483;-72
2023/07/16 08:03:32;;;;;;;3.17;2.00;;;19.40;99.90;;;;;;5032088;28;20989;-72
2023/07/16 08:06:00;;;;;;;1.93;1.83;;;19.50;99.90;;;;;;5032952;28;20461;-72
2023/07/16 08:08:26;;;;;;;2.03;1.40;;;19.50;99.90;;;;;;5042239;28;20484;-73
2023/07/16 08:10:54;;;;;;;1.40;1.30;;;19.60;99.90;;;;;;5037530;28;20451;-72
2023/07/16 08:13:20;;;;;;;5.23;2.33;;;19.70;99.90;;;;;;5031963;28;20464;-71
2023/07/16 08:15:48;;;;;;;2.10;1.63;;;19.70;99.90;;;;;;5030891;28;20467;-73
2023/07/16 08:18:15;;;;;;;1.90;1.50;;;19.80;99.90;;;;;;5031362;28;20515;-72
2023/07/16 08:20:42;;;;;;;1.57;1.43;;;19.80;99.90;;;;;;5031140;28;20482;-72
2023/07/16 08:23:10;;;;;;;2.10;1.90;;;19.80;99.90;;;;;;5029175;28;20477;-73
2023/07/16 08:25:36;;;;;;;2.90;1.63;;;19.90;99.90;;;;;;5029389;28;20467;-72
2023/07/16 08:28:04;;;;;;;6.33;2.03;;;19.90;99.90;;;;;;5036783;28;20489;-71
2023/07/16 08:30:30;;;;;;;3.27;1.80;;;19.90;99.90;;;;;;5036081;28;20470;-72
2023/07/16 08:32:57;;;;;;;3.03;1.60;;;20.00;99.90;;;;;;5028893;28;20479;-72
2023/07/16 08:35:24;;;;;;;2.70;1.80;;;20.10;99.90;;;;;;5029521;28;20469;-72
2023/07/16 08:37:51;;;;;;;3.33;1.80;;;20.00;99.90;;;;;;5029793;28;20484;-72
2023/07/16 08:40:20;;;;;;;2.23;1.50;;;20.00;99.90;;;;;;5027673;28;20471;-72
2023/07/16 08:42:47;;;;;;;1.50;1.40;;;20.00;99.90;;;;;;5029425;28;20485;-72
2023/07/16 08:45:19;;;;;;;5.07;1.73;;;20.10;99.90;;;;;;5030147;28;20496;-71
2023/07/16 08:47:46;;;;;;;1.83;1.57;;;20.30;99.90;;;;;;5029850;28;20511;-72
2023/07/16 08:50:15;;;;;;;3.07;1.67;;;20.40;99.90;;;;;;5028691;28;20483;-72
2023/07/16 08:52:43;;;;;;;1.87;1.43;;;20.40;99.90;;;;;;5027810;28;20555;-71
2023/07/16 08:55:09;;;;;;;1.80;1.57;;;20.30;99.90;;;;;;5028466;28;20934;-71
2023/07/16 08:57:38;;;;;;;2.20;1.77;;;20.20;99.90;;;;;;5028481;28;20941;-72
2023/07/16 09:00:07;;;;;;;3.60;1.90;;;20.20;99.90;;;;;;5028150;28;20472;-71
2023/07/16 09:02:34;;;;;;;1.50;1.40;;;20.30;99.90;;;;;;5027364;28;20480;-69
2023/07/16 09:05:01;;;;;;;1.80;1.23;;;20.40;99.90;;;;;;5023609;28;21015;-72
2023/07/16 09:07:27;;;;;;;1.80;1.50;;;20.50;99.90;;;;;;5027425;28;20492;-71
2023/07/16 09:09:59;;;;;;;2.00;1.33;;;20.50;99.90;;;;;;5033628;28;20978;-71
2023/07/16 09:12:27;;;;;;;2.07;1.53;;;20.50;99.90;;;;;;5036209;28;20464;-71
2023/07/16 09:14:55;;;;;;;2.30;1.43;;;20.60;99.90;;;;;;5026460;28;20468;-71
2023/07/16 09:17:22;;;;;;;5.03;1.70;;;20.70;99.90;;;;;;5028565;28;20480;-72
2023/07/16 09:19:49;;;;;;;1.70;1.60;;;20.70;99.90;;;;;;5027678;28;20465;-71
2023/07/16 09:22:18;;;;;;;1.93;1.30;;;20.70;99.90;;;;;;5034245;28;20490;-71
2023/07/16 09:24:46;;;;;;;3.90;1.90;;;20.80;99.90;;;;;;5020672;28;20468;-72
2023/07/16 09:27:13;;;;;;;2.83;1.50;;;20.90;99.90;;;;;;5036665;28;20475;-71
2023/07/16 09:29:40;;;;;;;2.97;1.80;;;21.10;99.90;;;;;;5043885;28;20948;-71
2023/07/16 09:32:09;;;;;;;1.40;1.20;;;21.10;99.90;;;;;;5032284;28;20510;-69
2023/07/16 09:34:36;;;;;;;2.03;1.47;;;21.30;99.90;;;;;;5048247;28;20468;-69
2023/07/16 09:37:05;;;;;;;1.77;1.50;;;21.30;99.90;;;;;;5048316;28;20487;-69
2023/07/16 09:39:33;;;;;;;1.47;1.27;;;21.30;99.90;;;;;;5031862;28;20473;-70
2023/07/16 09:42:02;;;;;;;1.60;1.30;;;21.30;99.90;;;;;;5028652;28;20508;-71
2023/07/16 09:44:30;;;;;;;2.50;1.50;;;21.30;99.90;;;;;;5027601;28;20470;-70
2023/07/16 09:46:57;;;;;;;2.40;1.43;;;21.30;99.90;;;;;;5028628;28;20501;-70
2023/07/16 09:49:29;;;;;;;1.40;1.27;;;21.40;99.90;;;;;;5028750;28;20517;-71
2023/07/16 09:51:58;;;;;;;2.77;1.50;;;21.60;99.90;;;;;;5032605;28;20472;-71
2023/07/16 09:54:27;;;;;;;2.17;1.57;;;21.70;99.90;;;;;;5048484;28;20554;-71
2023/07/16 09:56:58;;;;;;;2.40;1.47;;;21.70;99.90;;;;;;5048335;28;20487;-70
2023/07/16 09:59:32;;;;;;;2.87;1.70;;;21.70;99.90;;;;;;5037129;28;20491;-74
2023/07/16 10:02:03;;;;;;;2.37;1.80;;;21.70;99.90;;;;;;5028603;28;20494;-71
2023/07/16 10:04:42;;;;;;;2.10;1.80;;;21.60;99.90;;;;;;5029835;28;20477;-71
2023/07/16 10:07:21;;;;;;;2.60;1.60;;;21.80;99.90;;;;;;5048484;28;20499;-71
2023/07/16 10:09:54;;;;;;;1.20;1.10;;;22.00;99.90;;;;;;5019206;28;20465;-69
2023/07/16 10:12:22;;;;;;;2.37;1.50;;;22.20;99.90;;;;;;5023126;28;20516;-70
2023/07/16 10:14:50;;;;;;;2.40;1.60;;;22.30;99.90;;;;;;5015735;28;20566;-69
2023/07/16 10:17:18;;;;;;;2.40;1.50;;;22.50;99.90;;;;;;5030100;28;20481;-69
2023/07/16 10:19:56;;;;;;;1.97;1.50;;;22.60;99.90;;;;;;5048063;28;20486;-68
2023/07/16 10:22:33;;;;;;;2.83;1.70;;;22.60;99.90;;;;;;5051322;28;20479;-69
2023/07/16 10:25:00;;;;;;;1.87;1.40;;;22.50;99.90;;;;;;5024715;28;20852;-70
2023/07/16 10:27:29;;;;;;;2.43;1.60;;;22.50;99.90;;;;;;5040282;28;20508;-69
2023/07/16 10:29:56;;;;;;;1.90;1.67;;;22.70;99.90;;;;;;5030884;28;20477;-69
2023/07/16 10:32:27;;;;;;;1.50;1.40;;;22.80;99.90;;;;;;5039374;28;20478;-69
2023/07/16 10:34:56;;;;;;;3.07;1.60;;;22.90;99.90;;;;;;5039110;28;20470;-69
2023/07/16 10:37:23;;;;;;;2.60;1.80;;;23.00;99.90;;;;;;5031465;28;20536;-69
2023/07/16 10:39:51;;;;;;;3.57;1.70;;;23.10;99.90;;;;;;5031056;28;20470;-69
2023/07/16 10:42:18;;;;;;;2.67;1.63;;;23.10;99.90;;;;;;5031514;28;20566;-68
2023/07/16 10:44:45;;;;;;;2.07;1.53;;;23.10;99.90;;;;;;5040523;28;20478;-70
2023/07/16 10:47:21;;;;;;;2.00;1.80;;;23.30;99.90;;;;;;5051155;28;20497;-69
2023/07/16 10:49:48;;;;;;;2.77;1.67;;;23.40;99.90;;;;;;5050424;28;20861;-69
2023/07/16 10:52:16;;;;;;;1.60;1.50;;;23.60;99.90;;;;;;5050170;28;20974;-69
2023/07/16 10:54:43;;;;;;;3.10;1.37;;;23.60;99.90;;;;;;5050330;28;20561;-70
2023/07/16 10:57:10;;;;;;;1.90;1.50;;;23.50;99.90;;;;;;5051141;28;20534;-70
2023/07/16 10:59:39;;;;;;;3.17;1.53;;;23.50;99.90;;;;;;5042973;28;20539;-70
2023/07/16 11:02:10;;;;;;;1.70;1.60;;;23.40;99.90;;;;;;5042709;28;21069;-70
2023/07/16 11:04:36;;;;;;;2.13;1.80;;;23.40;99.90;;;;;;5028851;28;20471;-70
2023/07/16 11:07:06;;;;;;;2.70;1.70;;;23.50;99.90;;;;;;5049887;28;20574;-72
2023/07/16 11:09:35;;;;;;;2.87;1.80;;;23.60;99.90;;;;;;5047629;28;20489;-71
2023/07/16 11:12:08;;;;;;;2.00;1.83;;;23.60;99.90;;;;;;5030225;28;20571;-71
2023/07/16 11:14:35;;;;;;;1.63;1.50;;;23.80;99.90;;;;;;5021806;28;20475;-71
2023/07/16 11:17:07;;;;;;;2.77;1.60;;;23.90;99.90;;;;;;5030854;28;20999;-71
2023/07/16 11:19:34;;;;;;;2.00;1.67;;;24.00;99.90;;;;;;5023837;28;20468;-71
2023/07/16 11:22:01;;;;;;;2.37;1.60;;;24.20;99.90;;;;;;5048938;28;20571;-71
2023/07/16 11:24:28;;;;;;;2.17;1.50;;;24.30;99.90;;;;;;5049127;28;20850;-71
2023/07/16 11:26:57;;;;;;;2.43;1.63;;;24.20;99.90;;;;;;5049560;28;20483;-70
2023/07/16 11:29:24;;;;;;;1.60;1.43;;;24.10;99.90;;;;;;5048370;28;20529;-71
2023/07/16 11:31:52;;;;;;;2.03;1.70;;;24.00;99.90;;;;;;5039337;28;20469;-73
2023/07/16 11:34:21;;;;;;;1.70;1.60;;;23.80;99.90;;;;;;5030548;28;20518;-73
2023/07/16 11:36:49;;;;;;;2.70;1.63;;;23.70;99.90;;;;;;5030573;28;20956;-73
2023/07/16 11:39:16;;;;;;;2.43;2.00;;;23.60;99.90;;;;;;5031029;28;20466;-73
2023/07/16 11:41:43;;;;;;;1.47;1.37;;;23.60;99.90;;;;;;5030818;28;20468;-73
2023/07/16 11:44:13;;;;;;;2.53;1.80;;;23.60;99.90;;;;;;5031308;28;21000;-73
2023/07/16 11:46:39;;;;;;;2.40;1.50;;;23.60;99.90;;;;;;5030385;28;20575;-73
2023/07/16 11:49:06;;;;;;;1.80;1.57;;;23.80;99.90;;;;;;5031241;28;20471;-73
2023/07/16 11:51:33;;;;;;;2.63;1.77;;;23.80;99.90;;;;;;5030899;28;20986;-72
2023/07/16 11:53:59;;;;;;;2.10;1.90;;;23.70;99.90;;;;;;5026685;28;20470;-73
2023/07/16 11:56:26;;;;;;;2.13;1.83;;;23.60;99.90;;;;;;5050460;28;20475;-73
2023/07/16 11:58:53;;;;;;;3.53;1.43;;;23.40;99.90;;;;;;5045117;28;20472;-72
2023/07/16 12:01:21;;;;;;;1.90;1.27;;;23.40;99.90;;;;;;5031877;28;20539;-72
2023/07/16 12:03:48;;;;;;;3.10;2.00;;;23.40;99.90;;;;;;5031312;28;20490;-72
2023/07/16 12:06:14;;;;;;;3.37;1.80;;;23.30;99.90;;;;;;5031343;28;20844;-73
2023/07/16 12:08:41;;;;;;;2.03;1.60;;;23.40;99.90;;;;;;5048849;28;20486;-72
2023/07/16 12:11:08;;;;;;;2.10;1.30;;;23.60;99.90;;;;;;5039314;28;20463;-72
2023/07/16 12:13:34;;;;;;;1.70;1.60;;;23.90;99.90;;;;;;5031594;28;20477;-72
2023/07/16 12:16:02;;;;;;;1.60;1.50;;;24.00;99.90;;;;;;5034621;28;20467;-72
2023/07/16 12:18:31;;;;;;;1.60;1.30;;;24.10;99.90;;;;;;5051246;28;20479;-71
2023/07/16 12:20:57;;;;;;;2.80;2.00;;;24.20;99.90;;;;;;5044965;28;20935;-72
2023/07/16 12:23:24;;;;;;;1.40;1.30;;;24.40;99.90;;;;;;5031083;28;20490;-72
2023/07/16 12:25:51;;;;;;;1.40;1.30;;;24.70;99.90;;;;;;5030431;28;20469;-72
2023/07/16 12:28:18;;;;;;;2.17;1.60;;;24.90;99.90;;;;;;5031079;28;20488;-72
2023/07/16 12:30:45;;;;;;;1.70;1.60;;;24.80;99.90;;;;;;5030837;28;20465;-72
2023/07/16 12:33:11;;;;;;;1.80;1.60;;;24.70;99.90;;;;;;5031196;28;20834;-72
2023/07/16 12:35:39;;;;;;;2.20;1.90;;;24.50;99.90;;;;;;5030230;28;20464;-71
2023/07/16 12:38:06;;;;;;;2.33;1.70;;;24.40;99.90;;;;;;5030396;28;20487;-72
2023/07/16 12:40:39;;;;;;;3.03;1.83;;;24.20;99.90;;;;;;5029870;28;20475;-71
2023/07/16 12:43:06;;;;;;;1.80;1.47;;;24.20;99.90;;;;;;5029151;28;20485;-72
2023/07/16 12:45:33;;;;;;;2.27;1.50;;;24.00;99.90;;;;;;5028231;28;20845;-72
2023/07/16 12:47:59;;;;;;;1.70;1.40;;;24.00;99.90;;;;;;5029284;28;20495;-71
2023/07/16 12:50:28;;;;;;;1.60;1.37;;;24.00;99.90;;;;;;5025188;28;20470;-72